map of KDIJ home
KDIJ - Airport
Location
City:  Driggs, Idaho, United States
Name:Driggs-Reed Memorial Airport
ICAO:KDIJ
FAA LID:DIJ

Details
Type:Airport (Airfield)
Use:Public/Civil
Latitude:4344'34"N (43.742694)
Longitude:11105'48"W (-111.096777)
Datum:WGS 1984
Elevation:6231 ft (1899 m)
Variation:11.51E (WMM2015 magnetic declination)
-0.11 annual change
Runways:1
Longest:7300 × 100 ft (2225 × 30.5 m), paved

Time
Time Zone:UTC-7 (DST-6)
Local Time:

Weather
METAR:KDIJ 241456Z AUTO 00000KT 10SM FEW009 10/07 A3023 RMK AO2 SLP212 60001 T01000067 51003
TAF:KDIJ 241120Z 2412/2512 15007KT P6SM SCT050
FM241500 34005KT P6SM FEW060
FM250300 11005KT P6SM SKC
AMD LTD TO CLD VIS AND WIND

Related Locations
Nearby:
Farthest:RRG: 10747 mi / 17295 km
Plaine Corail [Sir Gatan Duval Airport (Plaine Corail Airport)], Rodrigues Island, MU

Find:

   beyond  
but within

Other Information
Maps:
NOTAMs:
Links:
Sources:

  
  • flag of United States
  • flag of Idaho
  

Sectional Chart

Flight Planning
at skyvector.com

Satellite Image

Google Maps Satellite view

 

Copyright © 2004-2018 Karl L. Swartz. All rights reserved.
The Great Circle Mapper name and logo are trademarks of the Great Circle Mapper.
All other trademarks mentioned herein belong to their respective owners.
Please see credits for attibutions and further copyright information.

  Follow gcmap on Facebook Follow gcmap on Twitter Follow gcmap on Google+ GCmap on LinkedIn

hCard Microformat

Geo Microformat